Terminal Aerodrome Forecast
Issued by NWS

Home | Current Version | Previous Version | Text Only | Print | Product List | Glossary On
Versions: 1 2 3 4 5 6 7 8 9 10 11 12 13 14 15 16 17 18 19 20
000
FTUS41 KBOX 272032 AAA
TAFHYA
TAF AMD
KHYA 272032Z 2721/2818 22012KT 2SM BR VCSH OVC002
     FM280200 VRB06KT 2SM -DZ BR BKN002
     FM280800 VRB04KT 3SM -DZ BR BKN002
     FM281400 VRB03KT 4SM BR VCSH BKN004
     FM281700 07004KT 5SM BR VCSH BKN006=

USA.gov is the U.S. government's official web portal to all federal, state and local government web resources and services.